sensor_id;sensor_type;location;lat;lon;timestamp;P1;durP1;ratioP1;P2;durP2;ratioP2
51296;SDS011;37380;45.186;9.792;2023-03-31T00:01:55;8.98;;;6.38;;
51296;SDS011;37380;45.186;9.792;2023-03-31T00:04:23;11.43;;;5.65;;
51296;SDS011;37380;45.186;9.792;2023-03-31T00:06:51;22.10;;;6.05;;
51296;SDS011;37380;45.186;9.792;2023-03-31T00:09:20;7.25;;;5.00;;
51296;SDS011;37380;45.186;9.792;2023-03-31T00:11:48;10.95;;;5.38;;
51296;SDS011;37380;45.186;9.792;2023-03-31T00:14:16;8.07;;;5.60;;
51296;SDS011;37380;45.186;9.792;2023-03-31T00:16:45;22.55;;;7.38;;
51296;SDS011;37380;45.186;9.792;2023-03-31T00:19:12;14.25;;;6.03;;
51296;SDS011;37380;45.186;9.792;2023-03-31T00:21:47;8.38;;;5.93;;
51296;SDS011;37380;45.186;9.792;2023-03-31T00:24:14;14.10;;;7.40;;
51296;SDS011;37380;45.186;9.792;2023-03-31T00:26:44;14.93;;;6.90;;
51296;SDS011;37380;45.186;9.792;2023-03-31T00:29:11;21.30;;;7.13;;
51296;SDS011;37380;45.186;9.792;2023-03-31T00:31:39;18.17;;;6.70;;
51296;SDS011;37380;45.186;9.792;2023-03-31T00:34:07;17.65;;;6.38;;
51296;SDS011;37380;45.186;9.792;2023-03-31T00:36:34;6.13;;;4.93;;
51296;SDS011;37380;45.186;9.792;2023-03-31T00:39:11;11.50;;;5.43;;
51296;SDS011;37380;45.186;9.792;2023-03-31T00:41:40;17.63;;;6.20;;
51296;SDS011;37380;45.186;9.792;2023-03-31T00:44:09;22.27;;;5.55;;
51296;SDS011;37380;45.186;9.792;2023-03-31T00:46:45;8.82;;;5.07;;
51296;SDS011;37380;45.186;9.792;2023-03-31T00:51:57;6.93;;;5.77;;
51296;SDS011;37380;45.186;9.792;2023-03-31T00:54:35;15.70;;;5.13;;
51296;SDS011;37380;45.186;9.792;2023-03-31T00:57:37;7.53;;;5.18;;
51296;SDS011;37380;45.186;9.792;2023-03-31T01:00:33;10.45;;;5.30;;
51296;SDS011;37380;45.186;9.792;2023-03-31T01:03:01;14.52;;;6.45;;
51296;SDS011;37380;45.186;9.792;2023-03-31T01:05:34;8.87;;;6.07;;
51296;SDS011;37380;45.186;9.792;2023-03-31T01:08:13;9.40;;;4.30;;
51296;SDS011;37380;45.186;9.792;2023-03-31T01:10:44;12.95;;;5.72;;
51296;SDS011;37380;45.186;9.792;2023-03-31T01:13:16;6.25;;;4.80;;
51296;SDS011;37380;45.186;9.792;2023-03-31T01:15:44;25.05;;;5.93;;
51296;SDS011;37380;45.186;9.792;2023-03-31T01:18:11;13.38;;;5.63;;
51296;SDS011;37380;45.186;9.792;2023-03-31T01:31:48;15.00;;;6.35;;
51296;SDS011;37380;45.186;9.792;2023-03-31T01:46:20;13.05;;;6.07;;
51296;SDS011;37380;45.186;9.792;2023-03-31T02:03:55;8.50;;;5.88;;
51296;SDS011;37380;45.186;9.792;2023-03-31T02:06:28;17.00;;;5.78;;
51296;SDS011;37380;45.186;9.792;2023-03-31T02:09:03;12.85;;;5.47;;
51296;SDS011;37380;45.186;9.792;2023-03-31T02:11:38;9.57;;;5.07;;
51296;SDS011;37380;45.186;9.792;2023-03-31T02:14:08;15.20;;;5.53;;
51296;SDS011;37380;45.186;9.792;2023-03-31T02:16:39;12.35;;;6.00;;
51296;SDS011;37380;45.186;9.792;2023-03-31T02:19:14;12.15;;;5.90;;
51296;SDS011;37380;45.186;9.792;2023-03-31T02:21:45;9.05;;;5.20;;
51296;SDS011;37380;45.186;9.792;2023-03-31T02:24:17;13.02;;;6.15;;
51296;SDS011;37380;45.186;9.792;2023-03-31T02:27:06;18.05;;;6.05;;
51296;SDS011;37380;45.186;9.792;2023-03-31T02:29:35;8.73;;;5.93;;
51296;SDS011;37380;45.186;9.792;2023-03-31T02:32:24;11.60;;;7.22;;
51296;SDS011;37380;45.186;9.792;2023-03-31T02:34:58;15.73;;;6.40;;
51296;SDS011;37380;45.186;9.792;2023-03-31T02:37:27;24.80;;;7.85;;
51296;SDS011;37380;45.186;9.792;2023-03-31T02:39:56;11.70;;;6.75;;
51296;SDS011;37380;45.186;9.792;2023-03-31T02:42:27;13.27;;;6.57;;
51296;SDS011;37380;45.186;9.792;2023-03-31T02:45:00;24.38;;;7.47;;
51296;SDS011;37380;45.186;9.792;2023-03-31T02:49:57;9.80;;;5.50;;
51296;SDS011;37380;45.186;9.792;2023-03-31T02:59:27;13.55;;;6.53;;
51296;SDS011;37380;45.186;9.792;2023-03-31T03:12:06;14.55;;;4.97;;
51296;SDS011;37380;45.186;9.792;2023-03-31T03:20:03;10.70;;;5.78;;
51296;SDS011;37380;45.186;9.792;2023-03-31T03:22:35;22.20;;;6.68;;
51296;SDS011;37380;45.186;9.792;2023-03-31T03:25:04;11.27;;;6.15;;
51296;SDS011;37380;45.186;9.792;2023-03-31T03:27:33;19.73;;;6.57;;
51296;SDS011;37380;45.186;9.792;2023-03-31T03:30:02;17.38;;;6.85;;
51296;SDS011;37380;45.186;9.792;2023-03-31T03:32:30;8.63;;;5.95;;
51296;SDS011;37380;45.186;9.792;2023-03-31T03:34:59;15.57;;;7.45;;
51296;SDS011;37380;45.186;9.792;2023-03-31T03:37:27;20.10;;;6.28;;
51296;SDS011;37380;45.186;9.792;2023-03-31T03:39:54;14.18;;;6.20;;
51296;SDS011;37380;45.186;9.792;2023-03-31T03:42:22;11.50;;;7.07;;
51296;SDS011;37380;45.186;9.792;2023-03-31T03:44:49;20.08;;;5.78;;
51296;SDS011;37380;45.186;9.792;2023-03-31T03:47:15;11.57;;;6.20;;
51296;SDS011;37380;45.186;9.792;2023-03-31T03:49:42;14.90;;;6.32;;
51296;SDS011;37380;45.186;9.792;2023-03-31T03:52:09;13.90;;;5.90;;
51296;SDS011;37380;45.186;9.792;2023-03-31T03:54:43;8.68;;;5.15;;
51296;SDS011;37380;45.186;9.792;2023-03-31T03:57:37;76.85;;;17.85;;
51296;SDS011;37380;45.186;9.792;2023-03-31T04:00:04;106.40;;;20.77;;
51296;SDS011;37380;45.186;9.792;2023-03-31T04:02:38;59.83;;;11.27;;
51296;SDS011;37380;45.186;9.792;2023-03-31T04:05:06;37.22;;;11.43;;
51296;SDS011;37380;45.186;9.792;2023-03-31T04:07:33;23.35;;;9.23;;
51296;SDS011;37380;45.186;9.792;2023-03-31T04:10:00;16.17;;;7.43;;
51296;SDS011;37380;45.186;9.792;2023-03-31T04:12:27;20.30;;;7.50;;
51296;SDS011;37380;45.186;9.792;2023-03-31T04:14:54;16.83;;;7.35;;
51296;SDS011;37380;45.186;9.792;2023-03-31T04:17:21;16.50;;;7.40;;
51296;SDS011;37380;45.186;9.792;2023-03-31T04:20:08;14.25;;;7.30;;
51296;SDS011;37380;45.186;9.792;2023-03-31T04:22:37;16.67;;;8.55;;
51296;SDS011;37380;45.186;9.792;2023-03-31T04:25:08;18.00;;;7.95;;
51296;SDS011;37380;45.186;9.792;2023-03-31T04:27:42;15.73;;;7.35;;
51296;SDS011;37380;45.186;9.792;2023-03-31T04:30:16;11.57;;;7.05;;
51296;SDS011;37380;45.186;9.792;2023-03-31T04:33:01;18.85;;;7.53;;
51296;SDS011;37380;45.186;9.792;2023-03-31T04:35:30;19.23;;;7.07;;
51296;SDS011;37380;45.186;9.792;2023-03-31T04:38:16;17.75;;;6.80;;
51296;SDS011;37380;45.186;9.792;2023-03-31T04:40:45;13.05;;;7.90;;
51296;SDS011;37380;45.186;9.792;2023-03-31T04:43:13;16.23;;;7.00;;
51296;SDS011;37380;45.186;9.792;2023-03-31T04:45:40;14.02;;;7.85;;
51296;SDS011;37380;45.186;9.792;2023-03-31T04:48:14;12.23;;;8.00;;
51296;SDS011;37380;45.186;9.792;2023-03-31T04:51:15;25.02;;;9.25;;
51296;SDS011;37380;45.186;9.792;2023-03-31T04:54:16;13.88;;;8.65;;
51296;SDS011;37380;45.186;9.792;2023-03-31T04:57:17;18.30;;;10.20;;
51296;SDS011;37380;45.186;9.792;2023-03-31T05:00:18;23.25;;;8.63;;
51296;SDS011;37380;45.186;9.792;2023-03-31T05:03:05;27.00;;;11.07;;
51296;SDS011;37380;45.186;9.792;2023-03-31T05:05:32;20.73;;;10.52;;
51296;SDS011;37380;45.186;9.792;2023-03-31T05:07:59;13.07;;;8.27;;
51296;SDS011;37380;45.186;9.792;2023-03-31T05:10:26;21.50;;;10.27;;
51296;SDS011;37380;45.186;9.792;2023-03-31T05:12:53;11.07;;;9.05;;
51296;SDS011;37380;45.186;9.792;2023-03-31T05:15:22;14.38;;;9.48;;
51296;SDS011;37380;45.186;9.792;2023-03-31T05:17:50;14.10;;;9.02;;
51296;SDS011;37380;45.186;9.792;2023-03-31T05:20:18;17.23;;;8.70;;
51296;SDS011;37380;45.186;9.792;2023-03-31T05:22:52;15.30;;;8.85;;
51296;SDS011;37380;45.186;9.792;2023-03-31T05:25:46;14.05;;;8.70;;
51296;SDS011;37380;45.186;9.792;2023-03-31T05:28:13;17.45;;;9.52;;
51296;SDS011;37380;45.186;9.792;2023-03-31T05:30:40;13.95;;;9.23;;
51296;SDS011;37380;45.186;9.792;2023-03-31T05:33:07;33.03;;;12.35;;
51296;SDS011;37380;45.186;9.792;2023-03-31T05:35:34;20.08;;;10.32;;
51296;SDS011;37380;45.186;9.792;2023-03-31T05:38:08;20.83;;;10.00;;
51296;SDS011;37380;45.186;9.792;2023-03-31T05:41:02;18.65;;;10.15;;
51296;SDS011;37380;45.186;9.792;2023-03-31T05:43:29;24.00;;;9.85;;
51296;SDS011;37380;45.186;9.792;2023-03-31T05:45:56;13.50;;;9.18;;
51296;SDS011;37380;45.186;9.792;2023-03-31T05:48:23;23.08;;;9.63;;
51296;SDS011;37380;45.186;9.792;2023-03-31T05:50:50;12.40;;;8.15;;
51296;SDS011;37380;45.186;9.792;2023-03-31T05:53:24;10.10;;;8.82;;
51296;SDS011;37380;45.186;9.792;2023-03-31T05:56:26;14.63;;;8.75;;
51296;SDS011;37380;45.186;9.792;2023-03-31T05:59:27;23.50;;;9.02;;
51296;SDS011;37380;45.186;9.792;2023-03-31T06:02:02;32.15;;;9.45;;
51296;SDS011;37380;45.186;9.792;2023-03-31T06:04:29;19.08;;;8.88;;
51296;SDS011;37380;45.186;9.792;2023-03-31T06:06:58;11.95;;;7.22;;
51296;SDS011;37380;45.186;9.792;2023-03-31T06:09:25;18.08;;;8.43;;
51296;SDS011;37380;45.186;9.792;2023-03-31T06:11:52;12.45;;;8.05;;
51296;SDS011;37380;45.186;9.792;2023-03-31T06:14:19;16.27;;;7.47;;
51296;SDS011;37380;45.186;9.792;2023-03-31T06:16:46;14.20;;;7.40;;
51296;SDS011;37380;45.186;9.792;2023-03-31T06:19:13;13.63;;;7.38;;
51296;SDS011;37380;45.186;9.792;2023-03-31T06:21:47;16.52;;;6.85;;
51296;SDS011;37380;45.186;9.792;2023-03-31T06:24:41;16.25;;;6.63;;
51296;SDS011;37380;45.186;9.792;2023-03-31T06:27:08;19.90;;;7.95;;
51296;SDS011;37380;45.186;9.792;2023-03-31T06:29:35;18.77;;;7.80;;
51296;SDS011;37380;45.186;9.792;2023-03-31T06:32:02;17.20;;;8.57;;
51296;SDS011;37380;45.186;9.792;2023-03-31T06:34:30;11.07;;;7.85;;
51296;SDS011;37380;45.186;9.792;2023-03-31T06:36:57;18.92;;;7.43;;
51296;SDS011;37380;45.186;9.792;2023-03-31T06:39:24;24.45;;;7.78;;
51296;SDS011;37380;45.186;9.792;2023-03-31T06:41:53;10.88;;;8.05;;
51296;SDS011;37380;45.186;9.792;2023-03-31T06:44:25;17.58;;;6.90;;
51296;SDS011;37380;45.186;9.792;2023-03-31T06:46:52;25.73;;;8.20;;
51296;SDS011;37380;45.186;9.792;2023-03-31T06:49:27;21.17;;;7.13;;
51296;SDS011;37380;45.186;9.792;2023-03-31T06:52:21;26.13;;;7.47;;
51296;SDS011;37380;45.186;9.792;2023-03-31T06:54:55;17.92;;;6.65;;
51296;SDS011;37380;45.186;9.792;2023-03-31T06:57:49;11.52;;;6.40;;
51296;SDS011;37380;45.186;9.792;2023-03-31T07:00:16;21.70;;;7.57;;
51296;SDS011;37380;45.186;9.792;2023-03-31T07:03:08;10.73;;;5.60;;
51296;SDS011;37380;45.186;9.792;2023-03-31T07:06:15;17.88;;;7.35;;
51296;SDS011;37380;45.186;9.792;2023-03-31T07:09:09;16.65;;;6.75;;
51296;SDS011;37380;45.186;9.792;2023-03-31T07:11:36;15.32;;;6.47;;
51296;SDS011;37380;45.186;9.792;2023-03-31T07:14:10;13.52;;;7.10;;
51296;SDS011;37380;45.186;9.792;2023-03-31T07:17:04;14.32;;;7.43;;
51296;SDS011;37380;45.186;9.792;2023-03-31T07:19:38;19.75;;;7.80;;
51296;SDS011;37380;45.186;9.792;2023-03-31T07:22:33;26.00;;;7.70;;
51296;SDS011;37380;45.186;9.792;2023-03-31T07:25:00;26.15;;;7.88;;
51296;SDS011;37380;45.186;9.792;2023-03-31T07:27:27;26.02;;;8.82;;
51296;SDS011;37380;45.186;9.792;2023-03-31T07:29:54;15.15;;;6.47;;
51296;SDS011;37380;45.186;9.792;2023-03-31T07:32:21;13.43;;;6.43;;
51296;SDS011;37380;45.186;9.792;2023-03-31T07:34:57;16.77;;;6.45;;
51296;SDS011;37380;45.186;9.792;2023-03-31T07:37:58;20.08;;;6.60;;
51296;SDS011;37380;45.186;9.792;2023-03-31T07:40:59;23.20;;;8.10;;
51296;SDS011;37380;45.186;9.792;2023-03-31T07:43:35;12.57;;;6.20;;
51296;SDS011;37380;45.186;9.792;2023-03-31T07:46:02;14.32;;;6.38;;
51296;SDS011;37380;45.186;9.792;2023-03-31T07:48:31;24.38;;;7.25;;
51296;SDS011;37380;45.186;9.792;2023-03-31T07:50:59;18.08;;;8.05;;
51296;SDS011;37380;45.186;9.792;2023-03-31T07:53:38;21.25;;;8.18;;
51296;SDS011;37380;45.186;9.792;2023-03-31T07:56:25;18.90;;;7.40;;
51296;SDS011;37380;45.186;9.792;2023-03-31T07:58:59;13.98;;;8.30;;
51296;SDS011;37380;45.186;9.792;2023-03-31T08:01:53;22.17;;;7.85;;
51296;SDS011;37380;45.186;9.792;2023-03-31T08:04:20;15.93;;;8.35;;
51296;SDS011;37380;45.186;9.792;2023-03-31T08:06:54;10.18;;;8.00;;
51296;SDS011;37380;45.186;9.792;2023-03-31T08:09:55;12.43;;;8.35;;
51296;SDS011;37380;45.186;9.792;2023-03-31T08:12:56;14.45;;;8.40;;
51296;SDS011;37380;45.186;9.792;2023-03-31T08:15:57;18.25;;;8.63;;
51296;SDS011;37380;45.186;9.792;2023-03-31T08:18:26;21.33;;;9.05;;
51296;SDS011;37380;45.186;9.792;2023-03-31T08:20:54;31.65;;;9.98;;
51296;SDS011;37380;45.186;9.792;2023-03-31T08:23:21;21.45;;;9.93;;
51296;SDS011;37380;45.186;9.792;2023-03-31T08:25:48;11.18;;;6.70;;
51296;SDS011;37380;45.186;9.792;2023-03-31T08:28:15;23.13;;;11.00;;
51296;SDS011;37380;45.186;9.792;2023-03-31T08:30:43;22.17;;;11.55;;
51296;SDS011;37380;45.186;9.792;2023-03-31T08:33:10;29.67;;;12.05;;
51296;SDS011;37380;45.186;9.792;2023-03-31T08:35:47;49.10;;;11.02;;
51296;SDS011;37380;45.186;9.792;2023-03-31T08:38:41;33.00;;;10.70;;
51296;SDS011;37380;45.186;9.792;2023-03-31T08:41:23;20.10;;;9.43;;
51296;SDS011;37380;45.186;9.792;2023-03-31T08:43:53;13.48;;;7.03;;
51296;SDS011;37380;45.186;9.792;2023-03-31T08:46:23;12.73;;;6.50;;
51296;SDS011;37380;45.186;9.792;2023-03-31T08:48:54;22.20;;;9.57;;
51296;SDS011;37380;45.186;9.792;2023-03-31T08:51:31;14.93;;;8.07;;
51296;SDS011;37380;45.186;9.792;2023-03-31T08:54:16;16.98;;;8.55;;
51296;SDS011;37380;45.186;9.792;2023-03-31T08:57:25;26.80;;;8.23;;
51296;SDS011;37380;45.186;9.792;2023-03-31T09:00:34;18.80;;;8.52;;
51296;SDS011;37380;45.186;9.792;2023-03-31T09:06:56;14.32;;;5.70;;
51296;SDS011;37380;45.186;9.792;2023-03-31T09:12:19;18.70;;;5.28;;
51296;SDS011;37380;45.186;9.792;2023-03-31T09:15:31;13.27;;;4.60;;
51296;SDS011;37380;45.186;9.792;2023-03-31T09:18:02;13.77;;;5.88;;
51296;SDS011;37380;45.186;9.792;2023-03-31T09:20:39;7.85;;;4.57;;
51296;SDS011;37380;45.186;9.792;2023-03-31T09:25:58;9.35;;;4.20;;
51296;SDS011;37380;45.186;9.792;2023-03-31T09:28:35;15.15;;;4.82;;
51296;SDS011;37380;45.186;9.792;2023-03-31T09:33:44;13.70;;;4.05;;
51296;SDS011;37380;45.186;9.792;2023-03-31T09:36:13;31.30;;;4.75;;
51296;SDS011;37380;45.186;9.792;2023-03-31T09:39:16;14.50;;;6.07;;
51296;SDS011;37380;45.186;9.792;2023-03-31T09:42:17;17.67;;;4.65;;
51296;SDS011;37380;45.186;9.792;2023-03-31T09:45:14;24.48;;;4.78;;
51296;SDS011;37380;45.186;9.792;2023-03-31T09:47:49;15.70;;;4.10;;
51296;SDS011;37380;45.186;9.792;2023-03-31T09:50:18;14.60;;;4.32;;
51296;SDS011;37380;45.186;9.792;2023-03-31T09:52:52;25.30;;;4.97;;
51296;SDS011;37380;45.186;9.792;2023-03-31T09:55:35;15.27;;;5.13;;
51296;SDS011;37380;45.186;9.792;2023-03-31T09:58:45;20.95;;;6.57;;
51296;SDS011;37380;45.186;9.792;2023-03-31T10:01:39;19.50;;;5.25;;
51296;SDS011;37380;45.186;9.792;2023-03-31T10:04:07;18.83;;;5.47;;
51296;SDS011;37380;45.186;9.792;2023-03-31T10:06:42;14.40;;;5.07;;
51296;SDS011;37380;45.186;9.792;2023-03-31T10:09:36;12.18;;;4.60;;
51296;SDS011;37380;45.186;9.792;2023-03-31T10:12:05;20.92;;;4.97;;
51296;SDS011;37380;45.186;9.792;2023-03-31T10:14:45;23.60;;;5.75;;
51296;SDS011;37380;45.186;9.792;2023-03-31T10:17:47;11.95;;;4.32;;
51296;SDS011;37380;45.186;9.792;2023-03-31T10:20:20;13.52;;;4.88;;
51296;SDS011;37380;45.186;9.792;2023-03-31T10:22:58;12.70;;;6.20;;
51296;SDS011;37380;45.186;9.792;2023-03-31T10:25:29;16.05;;;9.02;;
51296;SDS011;37380;45.186;9.792;2023-03-31T10:27:59;14.77;;;5.80;;
51296;SDS011;37380;45.186;9.792;2023-03-31T10:30:31;11.55;;;4.15;;
51296;SDS011;37380;45.186;9.792;2023-03-31T10:33:04;19.13;;;5.13;;
51296;SDS011;37380;45.186;9.792;2023-03-31T10:35:56;8.50;;;4.95;;
51296;SDS011;37380;45.186;9.792;2023-03-31T10:38:25;13.70;;;4.63;;
51296;SDS011;37380;45.186;9.792;2023-03-31T10:40:59;23.92;;;6.97;;
51296;SDS011;37380;45.186;9.792;2023-03-31T10:43:43;27.33;;;5.00;;
51296;SDS011;37380;45.186;9.792;2023-03-31T10:46:14;20.98;;;4.07;;
51296;SDS011;37380;45.186;9.792;2023-03-31T10:48:42;13.95;;;4.72;;
51296;SDS011;37380;45.186;9.792;2023-03-31T10:51:13;18.30;;;5.70;;
51296;SDS011;37380;45.186;9.792;2023-03-31T10:53:51;16.98;;;5.47;;
51296;SDS011;37380;45.186;9.792;2023-03-31T10:56:56;13.32;;;4.82;;
51296;SDS011;37380;45.186;9.792;2023-03-31T11:05:59;18.33;;;4.80;;
51296;SDS011;37380;45.186;9.792;2023-03-31T11:08:40;21.40;;;5.45;;
51296;SDS011;37380;45.186;9.792;2023-03-31T11:16:57;17.45;;;5.50;;
51296;SDS011;37380;45.186;9.792;2023-03-31T11:19:44;12.02;;;5.72;;
51296;SDS011;37380;45.186;9.792;2023-03-31T11:41:38;19.83;;;6.65;;
51296;SDS011;37380;45.186;9.792;2023-03-31T11:44:13;18.50;;;5.57;;
51296;SDS011;37380;45.186;9.792;2023-03-31T11:46:43;18.83;;;6.30;;
51296;SDS011;37380;45.186;9.792;2023-03-31T11:49:28;16.25;;;5.82;;
51296;SDS011;37380;45.186;9.792;2023-03-31T12:04:10;13.82;;;5.15;;
51296;SDS011;37380;45.186;9.792;2023-03-31T12:10:32;25.35;;;7.20;;
51296;SDS011;37380;45.186;9.792;2023-03-31T12:13:39;20.40;;;5.90;;
51296;SDS011;37380;45.186;9.792;2023-03-31T12:16:37;17.35;;;6.03;;
51296;SDS011;37380;45.186;9.792;2023-03-31T12:19:26;18.20;;;6.57;;
51296;SDS011;37380;45.186;9.792;2023-03-31T12:24:52;18.30;;;5.38;;
51296;SDS011;37380;45.186;9.792;2023-03-31T12:27:28;13.60;;;6.20;;
51296;SDS011;37380;45.186;9.792;2023-03-31T12:30:36;20.45;;;8.55;;
51296;SDS011;37380;45.186;9.792;2023-03-31T12:33:19;25.70;;;9.55;;
51296;SDS011;37380;45.186;9.792;2023-03-31T12:36:00;12.40;;;6.88;;
51296;SDS011;37380;45.186;9.792;2023-03-31T12:52:51;8.13;;;5.60;;
51296;SDS011;37380;45.186;9.792;2023-03-31T12:56:13;16.67;;;7.07;;
51296;SDS011;37380;45.186;9.792;2023-03-31T12:59:17;20.65;;;7.55;;
51296;SDS011;37380;45.186;9.792;2023-03-31T13:08:49;11.18;;;6.53;;
51296;SDS011;37380;45.186;9.792;2023-03-31T13:11:54;12.68;;;5.47;;
51296;SDS011;37380;45.186;9.792;2023-03-31T13:14:30;16.50;;;6.32;;
51296;SDS011;37380;45.186;9.792;2023-03-31T13:17:34;7.82;;;5.95;;
51296;SDS011;37380;45.186;9.792;2023-03-31T13:22:44;15.95;;;6.80;;
51296;SDS011;37380;45.186;9.792;2023-03-31T13:28:16;31.25;;;7.10;;
51296;SDS011;37380;45.186;9.792;2023-03-31T13:31:16;14.73;;;5.78;;
51296;SDS011;37380;45.186;9.792;2023-03-31T13:52:03;8.80;;;5.43;;
51296;SDS011;37380;45.186;9.792;2023-03-31T14:07:15;12.95;;;5.88;;
51296;SDS011;37380;45.186;9.792;2023-03-31T14:09:46;19.35;;;6.55;;
51296;SDS011;37380;45.186;9.792;2023-03-31T14:14:51;11.20;;;5.82;;
51296;SDS011;37380;45.186;9.792;2023-03-31T14:17:52;23.00;;;5.97;;
51296;SDS011;37380;45.186;9.792;2023-03-31T14:20:48;14.07;;;5.90;;
51296;SDS011;37380;45.186;9.792;2023-03-31T14:26:16;15.97;;;6.57;;
51296;SDS011;37380;45.186;9.792;2023-03-31T14:29:00;18.73;;;7.10;;
51296;SDS011;37380;45.186;9.792;2023-03-31T14:37:06;19.13;;;6.38;;
51296;SDS011;37380;45.186;9.792;2023-03-31T14:39:40;16.27;;;5.63;;
51296;SDS011;37380;45.186;9.792;2023-03-31T14:42:15;16.45;;;6.47;;
51296;SDS011;37380;45.186;9.792;2023-03-31T14:44:44;11.27;;;5.57;;
51296;SDS011;37380;45.186;9.792;2023-03-31T14:47:14;14.77;;;5.53;;
51296;SDS011;37380;45.186;9.792;2023-03-31T14:49:46;19.92;;;6.38;;
51296;SDS011;37380;45.186;9.792;2023-03-31T14:52:17;20.08;;;6.18;;
51296;SDS011;37380;45.186;9.792;2023-03-31T14:54:55;14.73;;;5.90;;
51296;SDS011;37380;45.186;9.792;2023-03-31T14:57:57;12.70;;;6.22;;
51296;SDS011;37380;45.186;9.792;2023-03-31T15:00:52;18.38;;;11.18;;
51296;SDS011;37380;45.186;9.792;2023-03-31T15:03:20;31.70;;;10.93;;
51296;SDS011;37380;45.186;9.792;2023-03-31T15:05:47;29.10;;;10.80;;
51296;SDS011;37380;45.186;9.792;2023-03-31T15:08:17;13.77;;;7.43;;
51296;SDS011;37380;45.186;9.792;2023-03-31T15:10:51;16.83;;;9.05;;
51296;SDS011;37380;45.186;9.792;2023-03-31T15:13:39;15.70;;;10.13;;
51296;SDS011;37380;45.186;9.792;2023-03-31T15:16:19;20.27;;;8.80;;
51296;SDS011;37380;45.186;9.792;2023-03-31T15:18:46;31.27;;;11.45;;
51296;SDS011;37380;45.186;9.792;2023-03-31T15:21:23;22.15;;;11.43;;
51296;SDS011;37380;45.186;9.792;2023-03-31T15:23:59;26.85;;;12.43;;
51296;SDS011;37380;45.186;9.792;2023-03-31T15:27:38;29.57;;;12.70;;
51296;SDS011;37380;45.186;9.792;2023-03-31T15:30:37;20.80;;;12.55;;
51296;SDS011;37380;45.186;9.792;2023-03-31T15:33:48;24.05;;;13.40;;
51296;SDS011;37380;45.186;9.792;2023-03-31T15:36:16;23.52;;;13.18;;
51296;SDS011;37380;45.186;9.792;2023-03-31T15:38:56;31.58;;;12.93;;
51296;SDS011;37380;45.186;9.792;2023-03-31T15:41:51;32.65;;;13.55;;
51296;SDS011;37380;45.186;9.792;2023-03-31T15:44:39;30.48;;;14.13;;
51296;SDS011;37380;45.186;9.792;2023-03-31T15:47:15;19.20;;;13.48;;
51296;SDS011;37380;45.186;9.792;2023-03-31T15:49:52;23.20;;;15.60;;
51296;SDS011;37380;45.186;9.792;2023-03-31T15:52:21;21.08;;;13.82;;
51296;SDS011;37380;45.186;9.792;2023-03-31T15:54:59;29.40;;;13.82;;
51296;SDS011;37380;45.186;9.792;2023-03-31T15:58:01;22.48;;;13.98;;
51296;SDS011;37380;45.186;9.792;2023-03-31T16:01:00;27.77;;;13.57;;
51296;SDS011;37380;45.186;9.792;2023-03-31T16:03:34;26.88;;;15.05;;
51296;SDS011;37380;45.186;9.792;2023-03-31T16:06:04;40.35;;;14.35;;
51296;SDS011;37380;45.186;9.792;2023-03-31T16:08:37;39.92;;;16.27;;
51296;SDS011;37380;45.186;9.792;2023-03-31T16:11:11;25.95;;;16.45;;
51296;SDS011;37380;45.186;9.792;2023-03-31T16:13:44;24.85;;;14.98;;
51296;SDS011;37380;45.186;9.792;2023-03-31T16:16:16;30.45;;;17.55;;
51296;SDS011;37380;45.186;9.792;2023-03-31T16:18:49;27.55;;;16.33;;
51296;SDS011;37380;45.186;9.792;2023-03-31T16:21:27;31.95;;;16.48;;
51296;SDS011;37380;45.186;9.792;2023-03-31T16:24:36;18.60;;;12.80;;
51296;SDS011;37380;45.186;9.792;2023-03-31T16:27:30;31.50;;;15.18;;
51296;SDS011;37380;45.186;9.792;2023-03-31T16:30:15;25.88;;;13.95;;
51296;SDS011;37380;45.186;9.792;2023-03-31T16:33:20;28.92;;;16.23;;
51296;SDS011;37380;45.186;9.792;2023-03-31T16:36:18;26.47;;;14.83;;
51296;SDS011;37380;45.186;9.792;2023-03-31T16:38:45;20.77;;;13.23;;
51296;SDS011;37380;45.186;9.792;2023-03-31T16:41:12;31.17;;;14.95;;
51296;SDS011;37380;45.186;9.792;2023-03-31T16:43:43;34.80;;;15.35;;
51296;SDS011;37380;45.186;9.792;2023-03-31T16:46:10;27.92;;;16.55;;
51296;SDS011;37380;45.186;9.792;2023-03-31T16:48:38;25.27;;;14.40;;
51296;SDS011;37380;45.186;9.792;2023-03-31T16:51:05;23.75;;;15.27;;
51296;SDS011;37380;45.186;9.792;2023-03-31T16:53:38;24.90;;;14.82;;
51296;SDS011;37380;45.186;9.792;2023-03-31T16:56:32;37.42;;;15.20;;
51296;SDS011;37380;45.186;9.792;2023-03-31T16:58:59;44.28;;;16.20;;
51296;SDS011;37380;45.186;9.792;2023-03-31T17:01:27;43.10;;;18.27;;
51296;SDS011;37380;45.186;9.792;2023-03-31T17:03:54;27.77;;;16.55;;
51296;SDS011;37380;45.186;9.792;2023-03-31T17:06:21;34.47;;;16.38;;
51296;SDS011;37380;45.186;9.792;2023-03-31T17:08:49;29.55;;;15.70;;
51296;SDS011;37380;45.186;9.792;2023-03-31T17:11:15;31.67;;;15.95;;
51296;SDS011;37380;45.186;9.792;2023-03-31T17:13:43;22.70;;;14.98;;
51296;SDS011;37380;45.186;9.792;2023-03-31T17:16:10;31.15;;;16.10;;
51296;SDS011;37380;45.186;9.792;2023-03-31T17:18:40;31.83;;;14.10;;
51296;SDS011;37380;45.186;9.792;2023-03-31T17:21:15;27.35;;;15.00;;
51296;SDS011;37380;45.186;9.792;2023-03-31T17:24:16;27.30;;;16.90;;
51296;SDS011;37380;45.186;9.792;2023-03-31T17:27:03;43.40;;;18.33;;
51296;SDS011;37380;45.186;9.792;2023-03-31T17:29:31;23.73;;;17.75;;
51296;SDS011;37380;45.186;9.792;2023-03-31T17:32:04;37.25;;;21.15;;
51296;SDS011;37380;45.186;9.792;2023-03-31T17:35:00;32.75;;;18.73;;
51296;SDS011;37380;45.186;9.792;2023-03-31T17:37:28;36.65;;;17.08;;
51296;SDS011;37380;45.186;9.792;2023-03-31T17:40:03;26.65;;;17.95;;
51296;SDS011;37380;45.186;9.792;2023-03-31T17:43:04;33.58;;;20.20;;
51296;SDS011;37380;45.186;9.792;2023-03-31T17:46:00;31.40;;;19.88;;
51296;SDS011;37380;45.186;9.792;2023-03-31T17:48:31;34.42;;;19.10;;
51296;SDS011;37380;45.186;9.792;2023-03-31T17:51:08;33.25;;;18.85;;
51296;SDS011;37380;45.186;9.792;2023-03-31T17:54:10;26.75;;;18.70;;
51296;SDS011;37380;45.186;9.792;2023-03-31T17:56:57;27.73;;;18.70;;
51296;SDS011;37380;45.186;9.792;2023-03-31T17:59:25;29.50;;;18.45;;
51296;SDS011;37380;45.186;9.792;2023-03-31T18:01:52;39.78;;;19.55;;
51296;SDS011;37380;45.186;9.792;2023-03-31T18:04:20;35.60;;;21.33;;
51296;SDS011;37380;45.186;9.792;2023-03-31T18:06:47;60.15;;;37.88;;
51296;SDS011;37380;45.186;9.792;2023-03-31T18:09:15;38.50;;;24.27;;
51296;SDS011;37380;45.186;9.792;2023-03-31T18:11:43;47.10;;;22.30;;
51296;SDS011;37380;45.186;9.792;2023-03-31T18:14:10;34.67;;;22.65;;
51296;SDS011;37380;45.186;9.792;2023-03-31T18:16:44;35.05;;;23.35;;
51296;SDS011;37380;45.186;9.792;2023-03-31T18:19:39;39.33;;;25.40;;
51296;SDS011;37380;45.186;9.792;2023-03-31T18:22:07;36.85;;;22.17;;
51296;SDS011;37380;45.186;9.792;2023-03-31T18:24:35;37.55;;;25.23;;
51296;SDS011;37380;45.186;9.792;2023-03-31T18:27:04;33.75;;;23.10;;
51296;SDS011;37380;45.186;9.792;2023-03-31T18:29:32;27.60;;;21.20;;
51296;SDS011;37380;45.186;9.792;2023-03-31T18:31:59;42.65;;;22.85;;
51296;SDS011;37380;45.186;9.792;2023-03-31T18:34:26;47.58;;;27.00;;
51296;SDS011;37380;45.186;9.792;2023-03-31T18:36:59;43.83;;;28.65;;
51296;SDS011;37380;45.186;9.792;2023-03-31T18:39:53;46.33;;;27.60;;
51296;SDS011;37380;45.186;9.792;2023-03-31T18:42:20;61.40;;;25.50;;
51296;SDS011;37380;45.186;9.792;2023-03-31T18:44:57;35.30;;;21.77;;
51296;SDS011;37380;45.186;9.792;2023-03-31T18:47:58;45.50;;;23.67;;